Terminal Aerodrome Forecast
Issued by NWS

Home | Current Version | Previous Version | Text Only | Print | Product List | Glossary On
Versions: 1 2 3 4 5 6 7 8 9 10 11 12
000
FTUS46 KSGX 171700
TAFSNA
TAF
KSNA 171720Z 1718/1818 VRB03KT P6SM SKC
     FM171900 23009KT P6SM FEW080 SCT120
     FM180200 VRB04KT P6SM FEW015
     FM181000 VRB04KT P6SM SCT010=

USA.gov is the U.S. government's official web portal to all federal, state and local government web resources and services.